createdAt,value
2019-04-14T00:02:23.566Z,91.80
2019-04-14T00:04:52.956Z,91.80
2019-04-14T00:07:22.971Z,92.30
2019-04-14T00:09:52.016Z,92.00
2019-04-14T00:12:21.030Z,91.40
2019-04-14T00:14:49.741Z,91.70
2019-04-14T00:17:19.437Z,91.50
2019-04-14T00:19:48.539Z,91.20
2019-04-14T00:22:18.399Z,91.80
2019-04-14T00:24:46.896Z,91.70
2019-04-14T00:27:15.639Z,91.60
2019-04-14T00:29:44.121Z,91.70
2019-04-14T00:32:13.993Z,91.80
2019-04-14T00:34:57.171Z,92.20
2019-04-14T00:37:53.396Z,91.60
2019-04-14T00:40:29.583Z,91.80
2019-04-14T00:43:13.511Z,91.80
2019-04-14T00:45:53.506Z,91.50
2019-04-14T00:48:24.157Z,91.60
2019-04-14T00:50:54.183Z,91.60
2019-04-14T00:53:22.915Z,92.00
2019-04-14T00:55:51.555Z,91.20
2019-04-14T00:58:21.376Z,91.30
2019-04-14T01:00:50.145Z,91.20
2019-04-14T01:03:19.858Z,91.40
2019-04-14T01:05:48.638Z,91.40
2019-04-14T01:08:18.520Z,91.20
2019-04-14T01:10:47.684Z,90.70
2019-04-14T01:13:16.246Z,90.70
2019-04-14T01:15:51.269Z,90.60
2019-04-14T01:18:14.930Z,90.40
2019-04-14T01:20:44.889Z,90.60
2019-04-14T01:23:15.023Z,90.60
2019-04-14T01:25:45.235Z,90.30
2019-04-14T01:28:14.018Z,91.30
2019-04-14T01:30:45.767Z,90.70
2019-04-14T01:33:14.263Z,90.50
2019-04-14T01:35:44.225Z,90.50
2019-04-14T01:38:12.814Z,90.40
2019-04-14T01:40:42.436Z,91.00
2019-04-14T01:43:10.805Z,90.40
2019-04-14T01:45:40.285Z,90.20
2019-04-14T01:48:08.750Z,90.80
2019-04-14T01:50:58.167Z,90.50
2019-04-14T01:53:53.174Z,90.60
2019-04-14T01:56:40.599Z,90.90
2019-04-14T01:59:09.336Z,91.70
2019-04-14T02:01:38.973Z,90.80
2019-04-14T02:04:07.696Z,90.80
2019-04-14T02:06:37.428Z,90.70
2019-04-14T02:09:09.639Z,90.40
2019-04-14T02:11:38.283Z,90.30
2019-04-14T02:14:08.168Z,90.30
2019-04-14T02:16:41.992Z,90.60
2019-04-14T02:19:08.788Z,90.70
2019-04-14T02:21:38.770Z,90.50
2019-04-14T02:24:09.190Z,90.60
2019-04-14T02:26:39.325Z,90.30
2019-04-14T02:29:08.084Z,90.20
2019-04-14T02:32:03.610Z,90.30
2019-04-14T02:34:45.490Z,90.60
2019-04-14T02:37:04.405Z,90.30
2019-04-14T02:42:28.296Z,90.50
2019-04-14T02:44:40.104Z,90.60
2019-04-14T02:47:17.873Z,90.70
2019-04-14T02:49:48.806Z,89.60
2019-04-14T02:52:04.339Z,90.80
2019-04-14T02:54:47.940Z,90.50
2019-04-14T02:57:12.757Z,90.80
2019-04-14T02:59:45.248Z,91.10
2019-04-14T03:07:14.335Z,91.70
2019-04-14T03:09:42.477Z,90.70
2019-04-14T03:12:09.143Z,90.60
2019-04-14T03:17:31.569Z,91.00
2019-04-14T03:25:39.379Z,91.40
2019-04-14T03:28:29.718Z,91.20
2019-04-14T03:36:43.993Z,91.40
2019-04-14T03:38:49.095Z,91.60
2019-04-14T03:41:23.783Z,91.40
2019-04-14T03:43:54.554Z,91.60
2019-04-14T03:46:21.360Z,92.00
2019-04-14T03:51:23.842Z,91.70
2019-04-14T03:53:44.058Z,91.80
2019-04-14T03:56:44.301Z,91.90
2019-04-14T03:59:15.111Z,92.10
2019-04-14T04:01:43.552Z,92.70
2019-04-14T04:04:12.412Z,92.30
2019-04-14T04:06:42.186Z,92.60
2019-04-14T04:09:17.122Z,92.40
2019-04-14T04:11:45.794Z,92.70
2019-04-14T04:14:14.470Z,92.70
2019-04-14T04:17:12.227Z,92.70
2019-04-14T04:20:04.486Z,92.70
2019-04-14T04:22:52.278Z,93.20
2019-04-14T04:25:40.662Z,93.00
2019-04-14T04:28:32.069Z,93.60
2019-04-14T04:31:05.178Z,93.30
2019-04-14T04:34:08.077Z,93.50
2019-04-14T04:36:46.893Z,93.20
2019-04-14T04:39:21.493Z,93.80
2019-04-14T04:41:50.086Z,93.40
2019-04-14T04:44:18.476Z,93.70
2019-04-14T04:46:48.305Z,93.70
2019-04-14T04:49:22.610Z,93.70
2019-04-14T04:51:48.573Z,94.50
2019-04-14T04:54:18.740Z,93.90
2019-04-14T04:56:47.463Z,94.30
2019-04-14T04:59:17.064Z,94.10
2019-04-14T05:01:45.617Z,94.50
2019-04-14T05:04:15.331Z,95.10
2019-04-14T05:07:01.758Z,94.50
2019-04-14T05:09:49.101Z,95.00
2019-04-14T05:12:45.798Z,94.80
2019-04-14T05:15:29.107Z,95.10
2019-04-14T05:17:58.044Z,94.70
2019-04-14T05:20:27.109Z,95.30
2019-04-14T05:22:57.170Z,95.00
2019-04-14T05:25:25.823Z,94.70
2019-04-14T05:27:54.291Z,94.80
2019-04-14T05:30:24.039Z,94.70
2019-04-14T05:32:54.324Z,94.80
2019-04-14T05:35:23.250Z,95.20
2019-04-14T05:37:52.909Z,95.10
2019-04-14T05:40:21.391Z,95.00
2019-04-14T05:42:49.911Z,95.30
2019-04-14T05:45:19.746Z,95.50
2019-04-14T05:47:48.469Z,95.20
2019-04-14T05:50:18.064Z,95.70
2019-04-14T05:52:47.163Z,96.00
2019-04-14T05:55:15.970Z,96.80
2019-04-14T05:57:44.384Z,96.10
2019-04-14T06:00:19.087Z,95.70
2019-04-14T06:02:53.000Z,95.90
2019-04-14T06:05:31.789Z,95.60
2019-04-14T06:08:09.121Z,95.40
2019-04-14T06:10:48.662Z,95.70
2019-04-14T06:13:24.414Z,95.40
2019-04-14T06:16:00.251Z,95.30
2019-04-14T06:18:35.818Z,95.70
2019-04-14T06:21:10.385Z,95.60
2019-04-14T06:23:52.766Z,95.50
2019-04-14T06:26:29.637Z,95.90
2019-04-14T06:29:04.270Z,95.80
2019-04-14T06:32:14.349Z,95.90
2019-04-14T06:34:55.338Z,96.10
2019-04-14T06:37:38.329Z,95.70
2019-04-14T06:40:14.015Z,96.10
2019-04-14T06:42:50.543Z,95.60
2019-04-14T06:45:30.150Z,95.70
2019-04-14T06:48:06.325Z,95.80
2019-04-14T06:50:46.445Z,95.90
2019-04-14T06:53:25.632Z,95.70
2019-04-14T06:56:01.171Z,96.10
2019-04-14T06:58:35.562Z,96.10
2019-04-14T07:01:12.425Z,95.60
2019-04-14T07:03:48.244Z,95.80
2019-04-14T07:06:24.692Z,95.80
2019-04-14T07:09:04.042Z,97.90
2019-04-14T07:11:41.961Z,95.90
2019-04-14T07:14:17.866Z,95.70
2019-04-14T07:16:54.877Z,95.60
2019-04-14T07:19:30.118Z,96.20
2019-04-14T07:22:06.428Z,95.60
2019-04-14T07:24:45.810Z,95.50
2019-04-14T07:27:22.301Z,95.30
2019-04-14T07:30:18.118Z,95.40
2019-04-14T07:33:14.117Z,95.60
2019-04-14T07:36:14.958Z,95.50
2019-04-14T07:38:53.803Z,96.60
2019-04-14T07:41:36.234Z,95.50
2019-04-14T07:44:22.973Z,94.70
2019-04-14T07:47:18.925Z,93.90
2019-04-14T07:50:15.824Z,94.00
2019-04-14T07:53:15.419Z,93.80
2019-04-14T07:56:05.453Z,93.80
2019-04-14T07:58:55.861Z,93.90
2019-04-14T08:01:37.851Z,93.90
2019-04-14T08:04:29.329Z,93.80
2019-04-14T08:07:05.858Z,93.30
2019-04-14T08:09:43.003Z,93.50
2019-04-14T08:12:25.557Z,93.20
2019-04-14T08:14:59.948Z,92.80
2019-04-14T08:17:34.887Z,93.00
2019-04-14T08:20:27.434Z,93.10
2019-04-14T08:22:53.526Z,92.90
2019-04-14T08:25:29.834Z,92.50
2019-04-14T08:28:07.034Z,91.60
2019-04-14T08:30:41.548Z,91.80
2019-04-14T08:33:20.453Z,91.90
2019-04-14T08:36:05.077Z,91.80
2019-04-14T08:38:39.544Z,91.20
2019-04-14T08:41:14.430Z,91.20
2019-04-14T08:44:08.110Z,91.20
2019-04-14T08:47:11.370Z,90.10
2019-04-14T08:50:01.047Z,89.40
2019-04-14T08:52:48.242Z,88.20
2019-04-14T08:55:38.641Z,89.50
2019-04-14T08:58:29.635Z,87.80
2019-04-14T09:01:14.632Z,88.10
2019-04-14T09:03:58.656Z,86.10
2019-04-14T09:06:50.220Z,85.70
2019-04-14T09:09:35.355Z,84.70
2019-04-14T09:12:33.219Z,83.70
2019-04-14T09:15:18.692Z,80.70
2019-04-14T09:17:48.380Z,79.30
2019-04-14T09:20:27.846Z,80.70
2019-04-14T09:23:02.498Z,77.90
2019-04-14T09:25:36.601Z,77.30
2019-04-14T09:28:11.357Z,79.00
2019-04-14T09:30:51.286Z,76.50
2019-04-14T09:33:28.428Z,75.50
2019-04-14T09:36:04.748Z,75.00
2019-04-14T09:38:43.659Z,76.50
2019-04-14T09:41:19.630Z,75.70
2019-04-14T09:43:54.578Z,75.20
2019-04-14T09:46:29.090Z,73.50
2019-04-14T09:49:11.458Z,74.80
2019-04-14T09:51:49.900Z,77.20
2019-04-14T09:54:25.957Z,72.70
2019-04-14T09:57:01.509Z,74.30
2019-04-14T09:59:57.132Z,73.80
2019-04-14T10:02:33.795Z,70.10
2019-04-14T10:05:10.346Z,70.50
2019-04-14T10:07:46.318Z,71.20
2019-04-14T10:10:27.222Z,68.10
2019-04-14T10:13:02.703Z,66.40
2019-04-14T10:15:40.619Z,66.10
2019-04-14T10:18:17.149Z,64.70
2019-04-14T10:20:51.399Z,63.70
2019-04-14T10:23:30.808Z,61.80
2019-04-14T10:26:07.477Z,64.80
2019-04-14T10:28:44.115Z,67.20
2019-04-14T10:31:23.339Z,67.30
2019-04-14T10:34:01.579Z,63.40
2019-04-14T10:36:39.105Z,61.90
2019-04-14T10:39:20.726Z,63.20
2019-04-14T10:41:54.506Z,65.50
2019-04-14T10:44:29.851Z,63.30
2019-04-14T10:47:10.473Z,61.70
2019-04-14T10:49:49.530Z,62.00
2019-04-14T10:52:25.117Z,62.00
2019-04-14T10:55:03.319Z,61.70
2019-04-14T10:57:40.017Z,59.70
2019-04-14T11:00:21.595Z,61.90
2019-04-14T11:03:01.023Z,64.20
2019-04-14T11:05:52.411Z,64.50
2019-04-14T11:08:26.915Z,59.90
2019-04-14T11:11:02.093Z,60.40
2019-04-14T11:13:39.975Z,59.30
2019-04-14T11:16:13.329Z,59.10
2019-04-14T11:18:52.076Z,58.20
2019-04-14T11:21:41.985Z,60.50
2019-04-14T11:24:09.286Z,56.50
2019-04-14T11:26:45.243Z,56.70
2019-04-14T11:29:23.627Z,58.10
2019-04-14T11:32:20.376Z,57.70
2019-04-14T11:35:05.373Z,57.00
2019-04-14T11:38:04.833Z,58.80
2019-04-14T11:40:45.667Z,62.50
2019-04-14T11:43:27.084Z,60.30
2019-04-14T11:46:08.044Z,56.60
2019-04-14T11:48:49.578Z,57.70
2019-04-14T11:51:25.861Z,55.90
2019-04-14T11:54:07.172Z,55.70
2019-04-14T11:56:46.616Z,55.20
2019-04-14T11:59:31.305Z,56.40
2019-04-14T12:02:26.274Z,61.10
2019-04-14T12:05:21.833Z,57.10
2019-04-14T12:08:18.335Z,57.50
2019-04-14T12:10:59.373Z,55.70
2019-04-14T12:13:42.877Z,56.60
2019-04-14T12:16:19.619Z,56.00
2019-04-14T12:18:57.528Z,57.20
2019-04-14T12:21:34.492Z,58.10
2019-04-14T12:24:12.150Z,57.60
2019-04-14T12:26:55.410Z,56.70
2019-04-14T12:29:37.475Z,56.00
2019-04-14T12:32:17.116Z,56.30
2019-04-14T12:34:46.332Z,56.40
2019-04-14T12:37:22.328Z,55.60
2019-04-14T12:39:59.671Z,54.80
2019-04-14T12:43:10.716Z,58.00
2019-04-14T12:46:00.822Z,57.40
2019-04-14T12:48:54.452Z,57.50
2019-04-14T12:51:37.025Z,54.70
2019-04-14T12:54:16.423Z,53.10
2019-04-14T12:56:52.807Z,54.20
2019-04-14T12:59:34.000Z,55.00
2019-04-14T13:02:19.622Z,55.00
2019-04-14T13:04:55.700Z,54.40
2019-04-14T13:07:39.159Z,51.70
2019-04-14T13:10:18.688Z,54.10
2019-04-14T13:12:52.219Z,53.60
2019-04-14T13:15:27.484Z,53.20
2019-04-14T13:18:10.268Z,55.70
2019-04-14T13:20:45.299Z,61.40
2019-04-14T13:23:25.682Z,56.00
2019-04-14T13:26:02.924Z,58.40
2019-04-14T13:28:38.487Z,55.50
2019-04-14T13:31:14.191Z,58.80
2019-04-14T13:33:48.669Z,56.20
2019-04-14T13:36:24.415Z,57.10
2019-04-14T13:39:01.088Z,57.30
2019-04-14T13:41:38.605Z,60.20
2019-04-14T13:44:13.279Z,58.30
2019-04-14T13:46:48.346Z,57.00
2019-04-14T13:49:22.377Z,57.00
2019-04-14T13:51:58.810Z,57.80
2019-04-14T13:54:35.458Z,56.10
2019-04-14T13:57:20.867Z,55.20
2019-04-14T13:59:56.751Z,58.70
2019-04-14T14:02:33.737Z,55.80
2019-04-14T14:05:08.440Z,53.90
2019-04-14T14:07:46.451Z,54.70
2019-04-14T14:10:22.377Z,56.50
2019-04-14T14:13:19.791Z,57.70
2019-04-14T14:16:16.200Z,56.70
2019-04-14T14:19:13.484Z,55.90
2019-04-14T14:22:10.413Z,55.00
2019-04-14T14:24:50.350Z,54.20
2019-04-14T14:27:33.466Z,55.60
2019-04-14T14:30:08.693Z,56.00
2019-04-14T14:32:42.582Z,56.80
2019-04-14T14:35:26.179Z,55.70
2019-04-14T14:38:01.248Z,58.50
2019-04-14T14:40:39.454Z,57.90
2019-04-14T14:43:14.655Z,57.50
2019-04-14T14:46:14.958Z,57.20
2019-04-14T14:49:02.359Z,56.20
2019-04-14T14:52:01.343Z,58.30
2019-04-14T14:54:47.345Z,57.50
2019-04-14T14:57:30.530Z,56.70
2019-04-14T15:00:07.471Z,56.50
2019-04-14T15:02:47.151Z,56.20
2019-04-14T15:05:25.373Z,56.00
2019-04-14T15:08:10.069Z,56.60
2019-04-14T15:10:47.850Z,57.10
2019-04-14T15:13:23.620Z,56.70
2019-04-14T15:16:03.889Z,56.80
2019-04-14T15:18:43.833Z,52.90
2019-04-14T15:21:19.742Z,54.10
2019-04-14T15:23:58.549Z,55.10
2019-04-14T15:26:34.882Z,56.10
2019-04-14T15:29:12.909Z,58.90
2019-04-14T15:31:49.399Z,58.30
2019-04-14T15:34:25.210Z,57.40
2019-04-14T15:37:01.929Z,56.00
2019-04-14T15:39:48.256Z,55.60
2019-04-14T15:42:17.906Z,56.60
2019-04-14T15:44:46.759Z,54.70
2019-04-14T15:47:24.346Z,54.70
2019-04-14T15:50:09.364Z,58.70
2019-04-14T15:52:50.676Z,56.90
2019-04-14T15:55:28.718Z,55.60
2019-04-14T15:58:23.179Z,56.20
2019-04-14T16:01:24.338Z,55.80
2019-04-14T16:04:19.774Z,58.30
2019-04-14T16:07:17.043Z,56.70
2019-04-14T16:10:10.323Z,57.10
2019-04-14T16:13:08.260Z,56.90
2019-04-14T16:15:53.718Z,58.10
2019-04-14T16:19:06.731Z,56.50
2019-04-14T16:21:44.362Z,57.10
2019-04-14T16:24:23.348Z,58.60
2019-04-14T16:27:09.755Z,59.60
2019-04-14T16:30:04.732Z,60.20
2019-04-14T16:33:05.762Z,59.70
2019-04-14T16:35:41.874Z,60.90
2019-04-14T16:38:17.026Z,61.00
2019-04-14T16:40:54.408Z,59.70
2019-04-14T16:43:34.152Z,60.40
2019-04-14T16:46:12.932Z,60.90
2019-04-14T16:48:49.684Z,61.80
2019-04-14T16:51:39.808Z,61.60
2019-04-14T16:54:23.537Z,63.00
2019-04-14T16:57:17.269Z,62.60
2019-04-14T16:59:56.967Z,63.90
2019-04-14T17:02:30.369Z,63.60
2019-04-14T17:05:05.370Z,63.40
2019-04-14T17:07:44.137Z,63.80
2019-04-14T17:10:24.662Z,63.70
2019-04-14T17:13:01.463Z,64.00
2019-04-14T17:15:45.003Z,62.80
2019-04-14T17:18:34.592Z,64.00
2019-04-14T17:21:21.064Z,62.80
2019-04-14T17:24:27.692Z,65.90
2019-04-14T17:27:24.298Z,65.80
2019-04-14T17:30:27.181Z,63.50
2019-04-14T17:33:14.695Z,62.20
2019-04-14T17:36:04.092Z,62.10
2019-04-14T17:38:58.541Z,62.90
2019-04-14T17:41:50.008Z,62.30
2019-04-14T17:44:30.267Z,62.90
2019-04-14T17:47:22.824Z,62.90
2019-04-14T17:50:40.436Z,62.30
2019-04-14T17:53:39.932Z,63.30
2019-04-14T17:56:41.253Z,65.30
2019-04-14T17:59:36.851Z,66.30
2019-04-14T18:02:32.310Z,65.40
2019-04-14T18:05:35.963Z,66.20
2019-04-14T18:08:21.548Z,66.70
2019-04-14T18:11:00.298Z,66.50
2019-04-14T18:13:50.026Z,66.40
2019-04-14T18:16:49.096Z,67.20
2019-04-14T18:19:46.309Z,67.20
2019-04-14T18:22:23.917Z,69.40
2019-04-14T18:25:10.473Z,70.10
2019-04-14T18:28:03.480Z,71.60
2019-04-14T18:30:48.645Z,71.90
2019-04-14T18:33:49.270Z,72.30
2019-04-14T18:36:35.696Z,74.70
2019-04-14T18:39:37.836Z,76.10
2019-04-14T18:42:18.832Z,74.30
2019-04-14T18:45:06.526Z,74.40
2019-04-14T18:48:07.871Z,72.80
2019-04-14T18:51:09.308Z,76.50
2019-04-14T18:54:05.118Z,77.00
2019-04-14T18:56:57.520Z,73.50
2019-04-14T18:59:41.979Z,73.40
2019-04-14T19:02:23.724Z,74.70
2019-04-14T19:05:02.870Z,73.90
2019-04-14T19:07:52.753Z,75.60
2019-04-14T19:10:37.230Z,74.10
2019-04-14T19:13:27.045Z,74.80
2019-04-14T19:16:15.514Z,73.90
2019-04-14T19:18:49.907Z,73.60
2019-04-14T19:21:23.900Z,71.80
2019-04-14T19:23:57.481Z,73.30
2019-04-14T19:26:30.520Z,73.00
2019-04-14T19:28:59.558Z,71.90
2019-04-14T19:31:29.206Z,72.00
2019-04-14T19:33:58.752Z,72.00
2019-04-14T19:36:29.819Z,71.60
2019-04-14T19:39:01.133Z,73.00
2019-04-14T19:41:31.187Z,71.90
2019-04-14T19:44:00.512Z,71.80
2019-04-14T19:46:31.131Z,72.00
2019-04-14T19:49:02.277Z,72.20
2019-04-14T19:51:32.406Z,72.70
2019-04-14T19:54:02.066Z,72.90
2019-04-14T19:56:31.925Z,74.10
2019-04-14T19:59:02.939Z,72.60
2019-04-14T20:01:32.711Z,74.40
2019-04-14T20:04:01.864Z,72.90
2019-04-14T20:06:31.761Z,73.30
2019-04-14T20:09:07.070Z,73.00
2019-04-14T20:11:36.599Z,72.60
2019-04-14T20:14:06.531Z,72.60
2019-04-14T20:16:46.681Z,72.80
2019-04-14T20:19:40.442Z,73.30
2019-04-14T20:22:35.058Z,73.50
2019-04-14T20:25:33.865Z,73.20
2019-04-14T20:28:24.720Z,74.00
2019-04-14T20:31:06.140Z,73.40
2019-04-14T20:33:36.360Z,73.50
2019-04-14T20:36:05.804Z,73.70
2019-04-14T20:38:36.992Z,75.50
2019-04-14T20:41:06.281Z,75.20
2019-04-14T20:43:36.611Z,74.70
2019-04-14T20:46:08.494Z,74.80
2019-04-14T20:48:40.488Z,74.90
2019-04-14T20:51:09.879Z,74.20
2019-04-14T20:53:39.307Z,74.00
2019-04-14T20:56:09.118Z,74.30
2019-04-14T20:58:38.872Z,74.00
2019-04-14T21:01:10.827Z,75.70
2019-04-14T21:04:03.054Z,75.10
2019-04-14T21:06:42.322Z,75.60
2019-04-14T21:09:15.933Z,74.80
2019-04-14T21:12:00.938Z,74.20
2019-04-14T21:14:50.870Z,74.30
2019-04-14T21:17:38.888Z,75.30
2019-04-14T21:20:20.972Z,75.90
2019-04-14T21:22:56.451Z,75.70
2019-04-14T21:25:37.178Z,75.40
2019-04-14T21:28:25.362Z,75.50
2019-04-14T21:31:06.236Z,75.80
2019-04-14T21:33:58.753Z,76.10
2019-04-14T21:36:43.446Z,77.00
2019-04-14T21:39:34.782Z,77.60
2019-04-14T21:42:03.490Z,75.80
2019-04-14T21:44:32.285Z,76.10
2019-04-14T21:47:01.378Z,75.40
2019-04-14T21:49:29.895Z,76.10
2019-04-14T21:52:18.354Z,76.40
2019-04-14T21:54:46.812Z,77.00
2019-04-14T21:57:32.944Z,75.90
2019-04-14T22:00:24.048Z,75.20
2019-04-14T22:03:13.647Z,76.10
2019-04-14T22:05:54.942Z,76.40
2019-04-14T22:08:27.523Z,76.10
2019-04-14T22:10:59.526Z,76.70
2019-04-14T22:13:28.062Z,76.30
2019-04-14T22:15:56.536Z,76.70
2019-04-14T22:18:25.258Z,76.50
2019-04-14T22:20:54.168Z,76.40
2019-04-14T22:23:23.021Z,77.20
2019-04-14T22:25:51.735Z,77.50
2019-04-14T22:28:20.564Z,77.50
2019-04-14T22:30:49.280Z,77.30
2019-04-14T22:33:17.995Z,77.30
2019-04-14T22:35:46.839Z,78.10
2019-04-14T22:38:15.531Z,77.80
2019-04-14T22:40:44.248Z,78.60
2019-04-14T22:43:12.807Z,78.10
2019-04-14T22:45:41.582Z,78.10
2019-04-14T22:48:10.111Z,78.40
2019-04-14T22:50:38.654Z,78.10
2019-04-14T22:53:07.030Z,78.20
2019-04-14T22:55:35.588Z,77.80
2019-04-14T22:58:05.234Z,77.70
2019-04-14T23:00:50.810Z,78.50
2019-04-14T23:03:40.660Z,78.40
2019-04-14T23:06:27.283Z,78.10
2019-04-14T23:09:07.215Z,77.50
2019-04-14T23:12:04.213Z,77.60
2019-04-14T23:14:57.947Z,78.20
2019-04-14T23:17:32.299Z,78.00
2019-04-14T23:20:26.390Z,77.70
2019-04-14T23:23:23.570Z,78.00
2019-04-14T23:25:52.299Z,77.10
2019-04-14T23:28:20.985Z,77.40
2019-04-14T23:30:49.709Z,77.80
2019-04-14T23:33:18.058Z,78.30
2019-04-14T23:35:46.523Z,77.30
2019-04-14T23:38:15.368Z,78.20
2019-04-14T23:40:43.902Z,77.50
2019-04-14T23:43:12.520Z,76.70
2019-04-14T23:45:41.207Z,77.20
2019-04-14T23:48:10.323Z,76.60
2019-04-14T23:50:39.354Z,77.00
2019-04-14T23:53:08.073Z,76.30
2019-04-14T23:55:36.518Z,76.80
2019-04-14T23:58:05.217Z,77.60
